Buffalo Niagara International Airport
KBUF : now visible

Airfield :











YOU CAN JOIN US ON...

 
LOGIN :

Register | Disclaimer

   EN    FR    IT 

 









Legend :    VFR   Marginal VFR   IFR   Intensive IFR   Very Intensive IFR
Visi :
Ceiling :
>= 8 km
>= 3000ft
5 to 8 km
1000 to 3000 ft
1500m to 5 km
500 to 1000 ft
800 to 1500m
200 to 500 ft
< 800m
< 200 ft
Symbols :   Thunderstorms  Fog  Heavy snow  Heavy precipitations  Wind > 20 kt






- Airport Elevation : 728 ft
- IATA code : BUF


KBUF - Buffalo Niagara International

CURRENT METAR :
  • 070054Z 25005KT 10SM FEW035 BKN047 OVC065 M01/M05 A3018 RMK AO2 SLP230 OCNL BINOVC T10061050

EXPIRED METARs :
  • 062354Z 27005KT 10SM FEW035 FEW070 M01/M05 A3017 RMK AO2 SLP225 4/003 60000 T10111050 10011 21011 51031
  • 062254Z 28005KT 10SM FEW026 SCT033 M01/M04 A3014 RMK AO2 SLP216 T10061044
  • 062201Z 28006KT 10SM FEW026 BKN031 00/M04 A3012 RMK AO2 T00001044

TAF KBUF
Valid from the 07 at 00:00 until the 08 at 00:00 UTC


062333Z 0700/0724 28007KT P6SM SCT045
FM071200 30009KT P6SM SCT050
FM071400 30008KT P6SM BKN070
FM071800 27008KT P6SM BKN050
FM072000 27007KT P6SM SCT100



MET'MAP, your aeronautical weather chart ! - Copyright ORBIFLY December 2007 - Disclaimer

ORBIFLY MET'MAP TEAM :

Programming & Development : Alexandra Zaïnal
Concept & original design : Baudouin d'Aumeries
Assistance for programming : Marc-Olivier Méhu
Technical & hardware support : Manuel Goepfert

Contact : metmap@orbifly.com




SOURCES & CREDITS :

   NOAA       Earth
Advisory